Latest Weather Observations for Maroochydore

IDQ60801

Issued at 4:05 am EST Friday 31 October 2014 (issued every 30 minutes, with the page automatically refreshed every 10 minutes)

About weather observations | Map of weather stations | Latest weather observations for QLD | Other Formats
Station Details ID: 040861 Name: SUNSHINE COAST AIRPORT Lat: -26.60 Lon: 153.09 Height: 3.3 m
Data from the previous 72 hours. | See also: Recent months at Maroochydore
Date/Time
EST
Temp
°C
App
Temp
°C
Dew
Point
Rel
Hum
%
Delta-T
°C
Wind Press
QNH
hPa
Press
MSL
hPa
Rain
since 9 am
mm
Dir
 
Spd
km/h
Gust
km/h
Spd
kts
Gust
kts
31/04:00am 19.9 22.9 18.4 91 0.9 W 0 0 0 0 1015.2 - 0.0
31/03:30am 20.7 24.0 19.2 91 0.9 NNW 0 0 0 0 1014.9 - 0.0
31/03:00am 21.0 24.4 19.3 90 1.1 CALM 0 0 0 0 1014.8 1014.8 0.0
31/02:30am 21.3 24.7 19.4 89 1.2 CALM 0 0 0 0 1015.0 - 0.0
31/02:00am 21.2 24.6 19.3 89 1.2 CALM 0 0 0 0 1015.1 - 0.0
31/01:30am 21.3 24.7 19.4 89 1.2 CALM 0 0 0 0 1015.1 - 0.0
31/01:00am 21.5 23.7 19.6 89 1.2 WNW 7 9 4 5 1015.4 - 0.0
31/12:30am 21.5 23.6 19.4 88 1.3 NW 7 7 4 4 1015.4 - 0.0
31/12:00am 21.5 23.8 19.4 88 1.3 WNW 6 7 3 4 1015.5 1015.5 0.0
 
Date/Time
EST
Temp
°C
App
Temp
°C
Dew
Point
Rel
Hum
%
Delta-T
°C
Wind Press
QNH
hPa
Press
MSL
hPa
Rain
since 9 am
mm
Dir
 
Spd
km/h
Gust
km/h
Spd
kts
Gust
kts
30/11:30pm 21.6 23.8 19.3 87 1.5 N 6 7 3 4 1015.8 - 0.0
30/11:00pm 21.8 24.0 19.5 87 1.5 NW 7 9 4 5 1016.3 - 0.0
30/10:30pm 21.9 23.4 19.8 88 1.3 N 11 13 6 7 1016.3 - 0.0
30/10:00pm 21.5 23.3 19.6 89 1.2 N 9 13 5 7 1016.5 - 0.0
30/09:30pm 21.5 22.7 19.1 86 1.5 N 11 17 6 9 1016.4 - 0.0
30/09:25pm 21.7 22.6 19.3 86 1.5 N 13 17 7 9 1016.2 - 0.0
30/09:15pm 21.8 23.1 19.2 85 1.6 N 11 15 6 8 1016.3 - 0.0
30/09:00pm 22.2 22.9 19.6 85 1.7 NNE 15 20 8 11 1016.3 1016.3 0.0
30/08:30pm 22.6 23.3 19.6 83 1.9 NNE 15 19 8 10 1016.1 - 0.0
30/08:13pm 22.7 23.0 19.7 83 1.9 NNE 17 19 9 10 1015.9 - 0.0
30/08:02pm 22.6 23.3 19.6 83 1.9 NNE 15 19 8 10 1016.0 - 0.0
30/08:00pm 22.7 23.0 19.7 83 1.9 NNE 17 19 9 10 1016.0 - 0.0
30/07:30pm 22.7 23.0 19.5 82 2.0 NNE 17 20 9 11 1015.7 - 0.0
30/07:00pm 22.8 23.7 20.0 84 1.8 NE 15 19 8 10 1015.2 - 0.0
30/06:56pm 22.7 23.4 19.7 83 1.9 NE 15 19 8 10 1015.1 - 0.0
30/06:30pm 22.7 23.0 19.5 82 2.0 NE 17 20 9 11 1014.9 - 0.0
30/06:00pm 22.8 22.9 19.2 80 2.3 NE 17 22 9 12 1014.6 1014.6 0.0
30/05:30pm 23.4 23.9 19.3 78 2.6 NE 15 22 8 12 1014.4 - 0.0
30/05:00pm 24.2 24.1 19.5 75 3.0 ENE 19 24 10 13 1014.2 - 0.0
30/04:30pm 24.9 24.7 19.3 71 3.6 ENE 19 24 10 13 1013.9 - 0.0
30/04:00pm 25.4 25.2 19.3 69 3.9 ENE 19 22 10 12 1013.9 - 0.0
30/03:30pm 25.6 25.3 19.5 69 3.9 ENE 20 26 11 14 1013.8 - 0.0
30/03:00pm 25.3 24.8 19.2 69 3.9 ENE 20 24 11 13 1013.8 1013.8 0.0
30/02:30pm 26.2 26.0 19.8 68 4.2 ENE 20 26 11 14 1014.1 - 0.0
30/02:00pm 25.7 25.4 19.6 69 3.9 E 20 26 11 14 1014.2 - 0.0
30/01:30pm 25.7 24.9 18.4 64 4.6 E 20 26 11 14 1014.7 - 0.0
30/01:00pm 25.0 24.3 18.7 68 4.0 E 20 24 11 13 1015.1 - 0.0
30/12:30pm 26.0 26.0 18.9 65 4.5 ENE 17 22 9 12 1015.7 - 0.0
30/12:00pm 25.7 25.2 18.6 65 4.5 E 19 22 10 12 1016.1 1016.1 0.0
30/11:30am 25.5 25.3 18.4 65 4.5 E 17 22 9 12 1016.4 - 0.0
30/11:00am 26.1 26.0 18.8 64 4.7 E 17 20 9 11 1016.8 - 0.0
30/10:30am 26.0 25.4 18.4 63 4.8 ESE 19 22 10 12 1017.2 - 0.0
30/10:00am 25.8 25.1 18.2 63 4.8 ESE 19 22 10 12 1017.3 - 0.0
30/09:30am 25.3 24.6 18.2 64 4.5 ESE 19 22 10 12 1017.6 - 0.0
30/09:00am 25.5 24.7 17.9 63 4.8 ESE 19 24 10 13 1017.8 1017.8 0.0
30/08:30am 25.4 24.6 18.1 64 4.6 SE 19 24 10 13 1017.9 - 0.0
30/08:00am 24.8 24.1 18.3 67 4.1 SSE 19 24 10 13 1017.8 - 0.0
30/07:30am 24.0 23.0 17.5 67 4.0 S 19 22 10 12 1017.8 - 0.0
30/07:00am 23.6 23.9 17.8 70 3.6 S 13 17 7 9 1017.7 - 0.0
30/06:30am 22.0 22.2 17.6 76 2.7 SSW 13 17 7 9 1017.4 - 0.0
30/06:00am 21.1 21.9 17.3 79 2.3 SW 9 11 5 6 1017.0 1017.0 0.0
30/05:50am 20.9 21.6 17.1 79 2.3 SW 9 11 5 6 1016.8 - 0.0
30/05:32am 20.4 20.9 16.6 79 2.3 SW 9 11 5 6 1016.5 - 0.0
30/05:30am 20.4 20.9 16.6 79 2.3 SW 9 11 5 6 1016.5 - 0.0
30/05:00am 20.3 20.5 16.7 80 2.2 SSW 11 15 6 8 1016.2 - 0.0
30/04:30am 19.5 20.0 16.5 83 1.8 SW 9 11 5 6 1015.9 - 0.0
30/04:00am 19.8 20.2 16.3 80 2.1 SW 9 11 5 6 1015.6 - 0.0
30/03:30am 20.5 20.9 16.3 77 2.5 S 9 13 5 7 1015.6 - 0.0
30/03:00am 21.4 21.2 16.8 75 2.8 S 13 15 7 8 1015.5 1015.5 0.0
30/02:30am 20.8 21.8 16.8 78 2.4 SSW 7 9 4 5 1015.6 - 0.0
30/02:00am 20.8 21.4 16.8 78 2.4 SW 9 11 5 6 1015.6 - 0.0
30/01:30am 21.2 21.7 16.6 75 2.8 SW 9 13 5 7 1015.7 - 0.0
30/01:00am 21.5 21.4 16.9 75 2.8 S 13 15 7 8 1015.8 - 0.0
30/12:30am 21.0 20.6 16.2 74 2.9 S 13 15 7 8 1015.9 - 0.0
30/12:00am 22.1 21.9 16.8 72 3.2 SSE 13 20 7 11 1016.4 1016.4 0.0
 
Date/Time
EST
Temp
°C
App
Temp
°C
Dew
Point
Rel
Hum
%
Delta-T
°C
Wind Press
QNH
hPa
Press
MSL
hPa
Rain
since 9 am
mm
Dir
 
Spd
km/h
Gust
km/h
Spd
kts
Gust
kts
29/11:30pm 22.1 21.1 16.6 71 3.3 SSE 17 20 9 11 1016.6 - 0.0
29/11:00pm 22.2 20.9 16.7 71 3.4 SE 19 24 10 13 1016.8 - 0.0
29/10:30pm 22.5 21.5 17.6 74 3.0 SE 19 24 10 13 1016.9 - 0.0
29/10:00pm 22.5 21.6 18.3 77 2.6 SE 20 26 11 14 1016.9 - 0.0
29/09:30pm 22.7 22.1 18.9 79 2.4 SE 20 26 11 14 1016.9 - 0.0
29/09:12pm 22.8 22.4 19.4 81 2.2 SE 20 30 11 16 1016.9 - 0.0
29/09:00pm 22.9 22.6 19.5 81 2.2 SE 20 26 11 14 1016.8 1016.8 0.0
29/08:51pm 22.8 22.5 19.6 82 2.0 SE 20 26 11 14 1016.8 - 0.0
29/08:30pm 22.9 22.9 19.7 82 2.1 SE 19 24 10 13 1016.7 - 0.0
29/08:00pm 23.0 23.2 19.4 80 2.3 SE 17 24 9 13 1016.4 - 0.0
29/07:30pm 23.0 23.1 19.2 79 2.4 SE 17 22 9 12 1016.2 - 0.0
29/07:00pm 23.1 22.8 19.1 78 2.5 SE 19 24 10 13 1016.0 - 0.0
29/06:30pm 23.2 22.8 18.9 77 2.7 ESE 19 26 10 14 1015.7 - 0.0
29/06:00pm 23.0 22.3 18.7 77 2.7 SE 20 24 11 13 1015.4 1015.4 0.0
29/05:30pm 23.3 22.0 18.2 73 3.2 SE 22 32 12 17 1015.0 - 0.0
29/05:00pm 23.9 23.0 19.0 74 3.1 SE 22 30 12 16 1014.7 - 0.0
29/04:30pm 24.0 22.3 18.9 73 3.2 SE 26 35 14 19 1014.1 - 0.0
29/04:00pm 24.6 23.1 19.4 73 3.3 SE 26 33 14 18 1013.9 - 0.0
29/03:30pm 25.4 24.2 20.0 72 3.5 SE 26 33 14 18 1013.8 - 0.0
29/03:00pm 25.8 24.1 19.9 70 3.8 SE 28 35 15 19 1013.7 1013.7 0.0
29/02:30pm 25.8 23.5 19.4 67 4.1 SE 30 39 16 21 1013.6 - 0.0
29/02:00pm 25.9 24.2 19.8 69 4.0 SE 28 39 15 21 1013.6 - 0.0
29/01:30pm 26.0 23.8 19.6 68 4.1 SE 30 39 16 21 1013.7 - 0.0
29/01:00pm 26.0 24.6 19.6 68 4.1 SE 26 35 14 19 1014.0 - 0.0
29/12:30pm 26.3 25.7 20.6 71 3.7 ESE 24 32 13 17 1014.1 - 0.0
29/12:00pm 26.0 25.4 20.6 72 3.5 ESE 24 30 13 16 1014.3 1014.3 0.0
29/11:30am 25.7 25.2 20.0 71 3.7 ESE 22 28 12 15 1014.6 - 0.0
29/11:00am 25.7 25.9 20.5 73 3.4 ESE 20 26 11 14 1014.8 - 0.0
29/10:30am 25.8 25.5 20.4 72 3.5 ESE 22 30 12 16 1015.0 - 0.0
29/10:00am 26.3 26.2 19.9 68 4.2 SE 20 26 11 14 1014.8 - 0.0
29/09:30am 25.7 25.8 20.0 71 3.7 ESE 19 24 10 13 1014.8 - 0.0
29/09:03am 25.2 25.1 20.0 73 3.4 ESE 20 24 11 13 1014.8 - 0.0
29/09:00am 24.8 24.7 19.6 73 3.3 ESE 19 26 10 14 1014.7 1014.7 0.2
29/08:30am 25.2 25.0 19.8 72 3.5 ESE 20 28 11 15 1014.6 - 0.2
29/08:00am 24.3 24.4 20.0 77 2.8 SSE 19 24 10 13 1014.4 - 0.2
29/07:30am 22.2 24.2 20.7 91 1.0 S 11 15 6 8 1014.2 - 0.2
29/07:00am 21.1 23.8 20.3 95 0.5 S 6 7 3 4 1014.0 - 0.2
29/06:53am 20.7 23.2 19.9 95 0.5 S 6 9 3 5 1013.9 - 0.2
29/06:30am 20.6 22.9 19.8 95 0.5 SW 7 11 4 6 1013.5 - 0.2
29/06:00am 20.1 23.5 19.3 95 0.5 CALM 0 0 0 0 1013.2 1013.2 0.2
29/05:30am 19.4 22.5 18.6 95 0.5 CALM 0 0 0 0 1012.7 - 0.2
29/05:00am 17.8 20.2 17.0 95 0.5 CALM 0 0 0 0 1012.5 - 0.2
29/04:30am 17.1 19.1 16.1 94 0.6 CALM 0 0 0 0 1012.1 - 0.2
29/04:00am 17.6 19.8 16.6 94 0.6 CALM 0 0 0 0 1011.7 - 0.2
29/03:30am 17.6 19.8 16.6 94 0.6 CALM 0 0 0 0 1011.5 - 0.2
29/03:03am 17.1 19.1 16.1 94 0.6 CALM 0 0 0 0 1011.3 - 0.2
29/03:00am 17.1 19.1 16.1 94 0.6 CALM 0 0 0 0 1011.2 1011.2 0.2
29/02:30am 18.0 20.4 17.0 94 0.6 CALM 0 0 0 0 1011.3 - 0.2
29/02:00am 17.4 18.4 16.4 94 0.6 N 6 9 3 5 1011.2 - 0.2
29/01:30am 18.0 20.4 16.9 93 0.7 CALM 0 0 0 0 1011.3 - 0.2
29/01:00am 19.0 20.5 17.7 92 0.8 WSW 6 7 3 4 1011.3 - 0.2
29/12:30am 19.8 21.5 18.6 93 0.7 WSW 7 7 4 4 1011.5 - 0.2
29/12:16am 19.9 21.7 18.7 93 0.7 W 7 7 4 4 1011.6 - 0.2
29/12:01am 20.4 22.1 19.4 94 0.6 W 9 9 5 5 1011.8 - 0.2
29/12:00am 20.4 22.1 19.4 94 0.6 W 9 9 5 5 1011.8 1011.8 0.2
 
Date/Time
EST
Temp
°C
App
Temp
°C
Dew
Point
Rel
Hum
%
Delta-T
°C
Wind Press
QNH
hPa
Press
MSL
hPa
Rain
since 9 am
mm
Dir
 
Spd
km/h
Gust
km/h
Spd
kts
Gust
kts
28/11:45pm 20.1 22.1 19.1 94 0.6 WNW 7 11 4 6 1012.0 - 0.2
28/11:30pm 20.0 21.9 19.0 94 0.6 NW 7 9 4 5 1012.2 - 0.2
28/11:22pm 19.5 20.7 18.3 93 0.7 NW 9 9 5 5 1012.3 - 0.2
28/11:00pm 19.1 20.5 17.8 92 0.8 N 7 9 4 5 1012.1 - 0.2
28/10:34pm 19.1 20.7 17.8 92 0.8 N 6 9 3 5 1012.0 - 0.2
28/10:30pm 19.1 21.4 17.8 92 0.8 S 2 9 1 5 1011.9 - 0.2
28/10:00pm 19.6 22.4 17.9 90 1.0 CALM 0 0 0 0 1011.7 - 0.2
28/09:30pm 21.4 24.1 19.5 89 1.2 S 4 9 2 5 1011.5 - 0.2
28/09:00pm 22.5 24.4 20.6 89 1.2 S 11 13 6 7 1011.4 1011.4 0.2
28/08:30pm 22.3 24.6 20.6 90 1.1 S 9 13 5 7 1011.4 - 0.2
28/08:00pm 22.2 24.4 20.3 89 1.2 SSE 9 11 5 6 1011.3 - 0.2
28/07:30pm 22.7 25.5 20.8 89 1.2 SSE 7 9 4 5 1011.3 - 0.2
28/07:00pm 23.0 25.2 21.1 89 1.2 SE 11 13 6 7 1010.6 - 0.2
28/06:30pm 23.3 24.9 20.8 86 1.6 SE 13 15 7 8 1010.1 - 0.2
28/06:00pm 23.6 25.0 21.1 86 1.6 SSE 15 20 8 11 1009.5 1009.5 0.2
28/05:30pm 24.0 25.8 21.1 84 1.9 SE 13 17 7 9 1009.3 - 0.2
28/05:00pm 24.4 26.3 21.3 83 2.0 SSE 13 17 7 9 1009.1 - 0.2
28/04:30pm 25.3 26.7 21.0 77 2.8 ESE 15 19 8 10 1009.0 - 0.2
28/04:00pm 25.8 26.7 20.8 74 3.3 SE 17 20 9 11 1009.1 - 0.2
28/03:30pm 26.0 26.5 20.1 70 3.8 SE 17 24 9 13 1009.2 - 0.2
28/03:00pm 26.1 26.9 20.7 72 3.6 ESE 17 20 9 11 1008.8 1008.8 0.2
28/02:30pm 25.7 26.5 20.7 74 3.3 SE 17 20 9 11 1009.3 - 0.2
28/02:00pm 26.1 26.9 21.3 75 3.2 SE 19 28 10 15 1009.3 - 0.2
28/01:30pm 25.6 26.8 20.6 74 3.3 SE 15 19 8 10 1010.0 - 0.2
28/01:00pm 28.3 29.7 21.8 68 4.4 ENE 17 22 9 12 1010.0 - 0.2
28/12:30pm 28.6 30.0 21.9 67 4.5 ENE 17 20 9 11 1010.3 - 0.2
28/12:00pm 28.8 28.4 21.0 62 5.2 NE 24 32 13 17 1010.1 1010.1 0.2
28/11:30am 30.2 29.2 21.3 59 6.0 NNE 28 35 15 19 1010.0 - 0.2
28/11:00am 27.7 26.2 21.0 67 4.4 ENE 30 35 16 19 1010.3 - 0.2
28/10:30am 28.6 27.0 21.6 66 4.7 NNE 32 41 17 22 1010.1 - 0.2
28/10:00am 26.9 24.9 20.7 69 4.1 NNE 32 37 17 20 1010.4 - 0.2
28/09:30am 26.9 26.0 19.8 65 4.6 NNE 24 33 13 18 1010.7 - 0.2
28/09:00am 28.4 28.8 20.9 64 5.0 N 20 28 11 15 1010.8 1010.8 1.0
28/08:30am 27.2 27.3 20.3 66 4.5 NNE 20 26 11 14 1010.9 - 1.0
28/08:00am 27.9 28.3 19.9 61 5.2 N 17 24 9 13 1010.8 - 1.0
28/07:30am 26.6 26.9 19.5 65 4.6 N 17 20 9 11 1010.6 - 1.0
28/07:00am 25.5 25.8 17.9 63 4.8 N 13 20 7 11 1010.5 - 1.0
28/06:30am 24.2 25.0 18.2 69 3.8 N 11 19 6 10 1010.2 - 1.0
28/06:00am 22.4 23.4 17.8 75 2.9 NNW 9 15 5 8 1009.8 1009.8 1.0
28/05:30am 21.3 21.9 16.9 76 2.7 NW 9 11 5 6 1009.6 - 1.0
28/05:00am 21.1 21.7 16.9 77 2.6 W 9 13 5 7 1009.0 - 1.0
28/04:30am 22.0 22.4 17.2 74 2.9 W 11 15 6 8 1008.9 - 1.0

Other Formats:

Comma delimited format used in spreadsheet applications
http://www.bom.gov.au/fwo/IDQ60801/IDQ60801.94569.axf

JavaScript Object Notation format (JSON) in row-major order
http://www.bom.gov.au/fwo/IDQ60801/IDQ60801.94569.json